Historyczne dane pomiarowe

Dodano dane terminowe – wersja testowa.

Dane z okresu 1951-2019

Wersja bazy: 1.34 [2019-03-16, lista zmian], aktualizacja planowana na 2019-04-15

Dane meteo z obszaru Polski uzyskane na podstawie danych udostępnionych przez Instytut Meteorologii i Gospodarki Wodnej – Państwowy Instytut Badawczy.

 

Wybierz Datę:    

       

TemperaturaWilgotnośćWiatrCiśnienieOpadyŚniegCzas trwania zjawisk
 Stacja t tx tn tng RH VA  wxwx mslp ppp RRR   cm mm wxwxwxwxwxwxwx
1994-08-14 7.4 11.5 5.1 2.2 81.0- 3.7 4.0---- 0.0------------
1994-08-13 10.5 14.0 8.3 6.5 77.3- 5.3 3.0---- 0.0------------
1994-08-12 10.5 14.2 9.0 6.3 80.8- 7.3 1.7---- 5.6------------
1994-08-11 16.1 20.6 12.7 9.8 69.5- 6.0 2.0---- 1.0------------
1994-08-10 13.8 19.0 6.8 3.8 69.0- 2.0 2.0---- 0.0------------
1994-08-09 13.6 17.2 11.5 1.2 84.3- 7.7 1.7---- 0.4------------
1994-08-08 17.2 21.1 12.3 9.1 63.3- 6.3 2.7---- 0.0------------
1994-08-07 16.6 20.4 13.9 8.0 60.3- 6.0 2.0---- 2.0------------
1994-08-06 17.6 21.9 13.6 10.1 60.0- 4.7 2.0---- 0.5------------
1994-08-05 16.1 20.9 10.8 6.5 68.8- 2.0 1.3---- 0.0------------
1994-08-04 14.6 17.9 11.0 7.3 78.8- 6.0 1.7---- 0.0------------
1994-08-03 15.8 19.4 12.1 8.4 79.5- 4.7 1.7---- 0.5------------
1994-08-02 17.5 21.5 13.8 8.8 66.0- 4.3 1.0---- 1.1------------
1994-08-01 18.2 22.7 13.8 10.3 60.3- 3.0 1.7---- 7.1------------
1994-07-31 19.1 23.2 14.0 9.2 54.5- 1.3 2.3---- 0.0------------
1994-07-30 18.7 23.0 13.5 7.5 45.0- 1.7 0.7---- 0.0------------
1994-07-29 17.8 22.4 11.8 6.2 44.8- 1.7 1.3---- 0.0------------
1994-07-28 17.5 21.1 12.0 6.0 48.8- 3.0 1.7---- 0.0------------
1994-07-27 17.1 22.4 12.4 8.3 52.0- 2.7 1.7---- 0.0------------
1994-07-26 17.3 21.0 11.5 7.2 55.5- 2.7 1.3---- 0.0------------
1994-07-25 16.3 20.3 12.3 8.3 57.5- 5.0 1.0---- 0.0------------
1994-07-24 15.1 19.2 10.1 6.2 56.3- 4.7 1.7---- 0.0------------
1994-07-23 13.7 18.2 7.0 2.2 62.0- 2.7 2.7---- 0.0------------
1994-07-22 13.1 17.4 6.9 1.4 59.5- 0.7 2.7---- 0.0------------
1994-07-21 10.9 15.9 4.2 -0.7 74.8- 0.7 1.7---- 0.0------------
1994-07-20 10.9 14.4 6.9 3.3 81.8- 4.0 1.3---- 0.0------------
1994-07-19 13.0 16.5 10.4 7.4 81.8- 6.7 1.7---- 0.0------------
1994-07-18 14.1 17.4 11.2 9.9 86.8- 6.3 2.0---- 2.0------------
1994-07-17 13.9 18.2 10.1 7.1 80.5- 4.7 1.7---- 14.9------------
1994-07-16 13.7 17.9 10.5 7.7 85.8- 4.7 2.0---- 9.3------------
1994-07-15 13.0 17.0 8.7 5.5 78.8- 4.7 1.0---- 10.3------------
1994-07-14 13.3 17.2 10.2 4.8 71.8- 7.0 2.0---- 10.7------------
1994-07-13 13.4 17.9 9.8 3.9 70.8- 5.7 3.0---- 0.0------------
1994-07-12 12.6 15.7 7.3 4.8 78.3- 5.3 2.0---- 0.0------------
1994-07-11 9.3 11.6 7.7 7.5 94.3- 7.7 1.7---- 1.2------------
1994-07-10 5.9 7.8 4.6 4.1 99.8- 8.0 1.7---- 18.8------------
1994-07-09 7.1 12.0 6.2 4.6 84.5- 8.0 1.0---- 15.8------------
1994-07-08 9.6 12.5 6.8 3.5 69.0- 6.0 2.3---- 0.0------------
1994-07-07 11.2 15.1 7.6 4.4 77.5- 6.7 2.0---- 9.9------------
1994-07-06 12.5 15.8 9.1 7.6 67.5- 4.0 2.0---- 0.0------------
1994-07-05 13.9 17.8 9.2 7.2 65.0- 7.0 1.0---- 0.0------------
1994-07-04 15.6 19.2 9.3 3.8 56.3- 1.7 1.7---- 0.0------------
1994-07-03 13.8 17.9 7.4 3.8 62.5- 1.3 1.3---- 0.0------------
1994-07-02 11.2 16.0 4.9 0.7 70.8- 0.7 1.7---- 0.0------------
1994-07-01 10.5 13.7 7.8 7.8 91.8- 5.7 0.7---- 0.3------------
1994-06-30 15.7 20.3 13.1 10.0 88.5- 6.3 2.0---- 42.6------------
1994-06-29 16.9 20.9 11.5 8.5 75.3- 4.3 1.3---- 0.6------------
1994-06-28 18.4 21.7 14.2 11.0 76.0- 5.0 2.0---- 0.0------------
1994-06-27 18.4 22.5 13.4 9.8 67.5- 4.7 2.0---- 0.0------------
1994-06-26 15.7 20.0 8.0 3.9 51.8- 1.0 2.0---- 0.0------------
1994-06-25 9.9 15.5 2.1 -1.9 40.3- 0.0 1.3---- 0.0------------
1994-06-24 7.0 11.7 2.3 -0.8 57.3- 1.0 1.3---- 0.0------------
1994-06-23 9.5 15.0 6.2 6.2 79.3- 6.3 1.3---- 1.4------------
1994-06-22 12.3 17.9 4.5 1.5 57.0- 5.7 1.3---- 4.5------------
1994-06-21 8.6 12.0 4.2 5.3 75.3- 3.0 2.0---- 0.0------------
1994-06-20 11.8 14.9 8.6 5.0 64.0- 5.7 2.0---- 0.0------------
1994-06-19 11.9 16.4 5.1 4.3 56.0- 4.7 2.3---- 0.7------------
1994-06-18 5.4 10.5 -0.2 -2.2 69.3- 6.3 2.0---- 10.4------------
1994-06-17 3.2 6.8 0.4 1.2 87.5- 7.7 2.0---- 5.3------------
1994-06-16 6.5 10.4 4.2 -0.1 64.5- 7.0 3.3---- 5.2------------
337.5 ms

 

Źródłem pochodzenia danych jest Instytut Meteorologii i Gospodarki Wodnej – Państwowy Instytut Badawczy. Dane Instytutu Meteorologii i Gospodarki Wodnej – Państwowego Instytutu Badawczego zostały przetworzone.

Dane źródłowe można odnaleźć na stronie https://dane.imgw.pl